sensor_id;sensor_type;location;lat;lon;timestamp;P1;durP1;ratioP1;P2;durP2;ratioP2
37001;SDS011;22913;51.910;8.374;2022-07-29T00:01:28;7.13;;;1.93;;
37001;SDS011;22913;51.910;8.374;2022-07-29T00:04:16;3.33;;;1.83;;
37001;SDS011;22913;51.910;8.374;2022-07-29T00:07:01;5.70;;;1.90;;
37001;SDS011;22913;51.910;8.374;2022-07-29T00:09:47;5.20;;;2.20;;
37001;SDS011;22913;51.910;8.374;2022-07-29T00:12:34;4.50;;;1.83;;
37001;SDS011;22913;51.910;8.374;2022-07-29T00:15:19;3.37;;;2.17;;
37001;SDS011;22913;51.910;8.374;2022-07-29T00:18:05;2.80;;;2.03;;
37001;SDS011;22913;51.910;8.374;2022-07-29T00:20:53;5.97;;;1.57;;
37001;SDS011;22913;51.910;8.374;2022-07-29T00:23:39;8.50;;;2.17;;
37001;SDS011;22913;51.910;8.374;2022-07-29T00:26:25;11.10;;;2.60;;
37001;SDS011;22913;51.910;8.374;2022-07-29T00:29:15;3.60;;;2.03;;
37001;SDS011;22913;51.910;8.374;2022-07-29T00:32:00;4.30;;;2.20;;
37001;SDS011;22913;51.910;8.374;2022-07-29T00:34:46;2.77;;;2.10;;
37001;SDS011;22913;51.910;8.374;2022-07-29T00:37:51;3.47;;;2.20;;
37001;SDS011;22913;51.910;8.374;2022-07-29T00:40:38;3.73;;;1.87;;
37001;SDS011;22913;51.910;8.374;2022-07-29T00:43:24;5.27;;;2.00;;
37001;SDS011;22913;51.910;8.374;2022-07-29T00:46:10;5.07;;;2.13;;
37001;SDS011;22913;51.910;8.374;2022-07-29T00:48:56;2.53;;;1.80;;
37001;SDS011;22913;51.910;8.374;2022-07-29T00:51:42;4.83;;;2.17;;
37001;SDS011;22913;51.910;8.374;2022-07-29T00:54:29;4.53;;;1.90;;
37001;SDS011;22913;51.910;8.374;2022-07-29T00:57:15;3.63;;;1.90;;
37001;SDS011;22913;51.910;8.374;2022-07-29T01:00:02;4.17;;;1.87;;
37001;SDS011;22913;51.910;8.374;2022-07-29T01:02:48;5.93;;;1.73;;
37001;SDS011;22913;51.910;8.374;2022-07-29T01:05:35;7.90;;;2.60;;
37001;SDS011;22913;51.910;8.374;2022-07-29T01:08:20;7.47;;;1.80;;
37001;SDS011;22913;51.910;8.374;2022-07-29T01:11:09;1.57;;;1.43;;
37001;SDS011;22913;51.910;8.374;2022-07-29T01:13:55;6.93;;;1.70;;
37001;SDS011;22913;51.910;8.374;2022-07-29T01:16:42;4.47;;;1.63;;
37001;SDS011;22913;51.910;8.374;2022-07-29T01:19:41;2.30;;;1.73;;
37001;SDS011;22913;51.910;8.374;2022-07-29T01:22:40;4.00;;;1.83;;
37001;SDS011;22913;51.910;8.374;2022-07-29T01:28:52;3.90;;;1.90;;
37001;SDS011;22913;51.910;8.374;2022-07-29T01:31:47;6.10;;;2.10;;
37001;SDS011;22913;51.910;8.374;2022-07-29T01:34:40;5.60;;;2.20;;
37001;SDS011;22913;51.910;8.374;2022-07-29T01:37:33;5.73;;;2.57;;
37001;SDS011;22913;51.910;8.374;2022-07-29T01:40:29;4.90;;;2.17;;
37001;SDS011;22913;51.910;8.374;2022-07-29T01:43:20;5.00;;;1.87;;
37001;SDS011;22913;51.910;8.374;2022-07-29T01:46:13;5.80;;;1.97;;
37001;SDS011;22913;51.910;8.374;2022-07-29T01:49:06;5.50;;;2.00;;
37001;SDS011;22913;51.910;8.374;2022-07-29T01:51:57;3.03;;;2.00;;
37001;SDS011;22913;51.910;8.374;2022-07-29T01:54:46;4.47;;;1.83;;
37001;SDS011;22913;51.910;8.374;2022-07-29T01:57:37;4.43;;;2.23;;
37001;SDS011;22913;51.910;8.374;2022-07-29T02:00:27;5.03;;;2.40;;
37001;SDS011;22913;51.910;8.374;2022-07-29T02:03:17;5.17;;;1.93;;
37001;SDS011;22913;51.910;8.374;2022-07-29T02:06:04;5.10;;;2.33;;
37001;SDS011;22913;51.910;8.374;2022-07-29T02:08:51;4.30;;;1.90;;
37001;SDS011;22913;51.910;8.374;2022-07-29T02:11:38;5.20;;;2.30;;
37001;SDS011;22913;51.910;8.374;2022-07-29T02:14:25;5.97;;;2.20;;
37001;SDS011;22913;51.910;8.374;2022-07-29T02:17:16;5.57;;;2.10;;
37001;SDS011;22913;51.910;8.374;2022-07-29T02:20:09;5.67;;;1.90;;
37001;SDS011;22913;51.910;8.374;2022-07-29T02:22:56;4.27;;;1.93;;
37001;SDS011;22913;51.910;8.374;2022-07-29T02:25:43;4.00;;;2.07;;
37001;SDS011;22913;51.910;8.374;2022-07-29T02:28:30;6.37;;;2.30;;
37001;SDS011;22913;51.910;8.374;2022-07-29T02:31:18;3.07;;;1.70;;
37001;SDS011;22913;51.910;8.374;2022-07-29T02:34:06;3.80;;;2.30;;
37001;SDS011;22913;51.910;8.374;2022-07-29T02:36:55;7.57;;;2.00;;
37001;SDS011;22913;51.910;8.374;2022-07-29T02:39:41;3.33;;;1.70;;
37001;SDS011;22913;51.910;8.374;2022-07-29T02:42:29;3.10;;;1.73;;
37001;SDS011;22913;51.910;8.374;2022-07-29T02:45:17;4.20;;;1.63;;
37001;SDS011;22913;51.910;8.374;2022-07-29T02:48:05;5.27;;;1.90;;
37001;SDS011;22913;51.910;8.374;2022-07-29T02:50:56;3.93;;;2.10;;
37001;SDS011;22913;51.910;8.374;2022-07-29T02:53:51;7.10;;;1.80;;
37001;SDS011;22913;51.910;8.374;2022-07-29T02:56:39;4.80;;;2.10;;
37001;SDS011;22913;51.910;8.374;2022-07-29T02:59:27;4.57;;;1.40;;
37001;SDS011;22913;51.910;8.374;2022-07-29T03:02:19;3.30;;;2.00;;
37001;SDS011;22913;51.910;8.374;2022-07-29T03:05:08;4.13;;;1.70;;
37001;SDS011;22913;51.910;8.374;2022-07-29T03:07:57;3.50;;;1.63;;
37001;SDS011;22913;51.910;8.374;2022-07-29T03:10:47;4.47;;;1.77;;
37001;SDS011;22913;51.910;8.374;2022-07-29T03:13:34;3.90;;;2.20;;
37001;SDS011;22913;51.910;8.374;2022-07-29T03:16:21;3.53;;;2.30;;
37001;SDS011;22913;51.910;8.374;2022-07-29T03:19:07;3.90;;;1.83;;
37001;SDS011;22913;51.910;8.374;2022-07-29T03:21:55;3.17;;;1.80;;
37001;SDS011;22913;51.910;8.374;2022-07-29T03:24:42;4.73;;;1.87;;
37001;SDS011;22913;51.910;8.374;2022-07-29T03:27:29;2.80;;;1.83;;
37001;SDS011;22913;51.910;8.374;2022-07-29T03:30:15;7.53;;;1.90;;
37001;SDS011;22913;51.910;8.374;2022-07-29T03:33:00;4.93;;;1.90;;
37001;SDS011;22913;51.910;8.374;2022-07-29T03:35:46;3.10;;;2.10;;
37001;SDS011;22913;51.910;8.374;2022-07-29T03:38:33;3.00;;;1.70;;
37001;SDS011;22913;51.910;8.374;2022-07-29T03:41:20;5.00;;;1.80;;
37001;SDS011;22913;51.910;8.374;2022-07-29T03:44:10;4.97;;;1.80;;
37001;SDS011;22913;51.910;8.374;2022-07-29T03:46:57;3.67;;;1.90;;
37001;SDS011;22913;51.910;8.374;2022-07-29T03:49:46;2.67;;;1.80;;
37001;SDS011;22913;51.910;8.374;2022-07-29T03:52:35;6.03;;;2.30;;
37001;SDS011;22913;51.910;8.374;2022-07-29T03:55:21;7.67;;;1.83;;
37001;SDS011;22913;51.910;8.374;2022-07-29T03:58:07;4.43;;;2.03;;
37001;SDS011;22913;51.910;8.374;2022-07-29T04:00:55;5.10;;;1.57;;
37001;SDS011;22913;51.910;8.374;2022-07-29T04:03:41;2.30;;;1.83;;
37001;SDS011;22913;51.910;8.374;2022-07-29T04:06:30;4.63;;;1.73;;
37001;SDS011;22913;51.910;8.374;2022-07-29T04:09:23;5.53;;;2.10;;
37001;SDS011;22913;51.910;8.374;2022-07-29T04:12:09;2.27;;;1.70;;
37001;SDS011;22913;51.910;8.374;2022-07-29T04:14:55;3.80;;;1.73;;
37001;SDS011;22913;51.910;8.374;2022-07-29T04:17:42;4.07;;;1.57;;
37001;SDS011;22913;51.910;8.374;2022-07-29T04:20:28;4.00;;;1.80;;
37001;SDS011;22913;51.910;8.374;2022-07-29T04:23:14;2.43;;;2.20;;
37001;SDS011;22913;51.910;8.374;2022-07-29T04:26:00;3.73;;;2.00;;
37001;SDS011;22913;51.910;8.374;2022-07-29T04:28:46;3.53;;;1.80;;
37001;SDS011;22913;51.910;8.374;2022-07-29T04:31:32;6.43;;;2.13;;
37001;SDS011;22913;51.910;8.374;2022-07-29T04:34:19;4.53;;;2.30;;
37001;SDS011;22913;51.910;8.374;2022-07-29T04:37:05;2.83;;;1.97;;
37001;SDS011;22913;51.910;8.374;2022-07-29T04:39:50;3.53;;;1.63;;
37001;SDS011;22913;51.910;8.374;2022-07-29T04:42:36;3.47;;;1.80;;
37001;SDS011;22913;51.910;8.374;2022-07-29T04:45:22;4.13;;;1.90;;
37001;SDS011;22913;51.910;8.374;2022-07-29T04:48:08;4.00;;;1.90;;
37001;SDS011;22913;51.910;8.374;2022-07-29T04:50:55;4.83;;;1.90;;
37001;SDS011;22913;51.910;8.374;2022-07-29T04:53:41;3.70;;;2.10;;
37001;SDS011;22913;51.910;8.374;2022-07-29T04:56:27;5.17;;;1.87;;
37001;SDS011;22913;51.910;8.374;2022-07-29T04:59:13;3.13;;;1.90;;
37001;SDS011;22913;51.910;8.374;2022-07-29T05:01:58;3.97;;;2.00;;
37001;SDS011;22913;51.910;8.374;2022-07-29T05:04:44;2.53;;;1.70;;
37001;SDS011;22913;51.910;8.374;2022-07-29T05:07:31;4.60;;;1.90;;
37001;SDS011;22913;51.910;8.374;2022-07-29T05:10:17;3.87;;;1.83;;
37001;SDS011;22913;51.910;8.374;2022-07-29T05:13:03;7.63;;;2.07;;
37001;SDS011;22913;51.910;8.374;2022-07-29T05:15:50;5.13;;;2.00;;
37001;SDS011;22913;51.910;8.374;2022-07-29T05:18:36;2.63;;;2.20;;
37001;SDS011;22913;51.910;8.374;2022-07-29T05:21:23;3.67;;;2.00;;
37001;SDS011;22913;51.910;8.374;2022-07-29T05:24:09;2.57;;;1.63;;
37001;SDS011;22913;51.910;8.374;2022-07-29T05:26:56;7.37;;;1.83;;
37001;SDS011;22913;51.910;8.374;2022-07-29T05:29:41;3.43;;;1.60;;
37001;SDS011;22913;51.910;8.374;2022-07-29T05:32:28;4.70;;;1.93;;
37001;SDS011;22913;51.910;8.374;2022-07-29T05:35:14;2.93;;;2.00;;
37001;SDS011;22913;51.910;8.374;2022-07-29T05:38:00;6.53;;;2.00;;
37001;SDS011;22913;51.910;8.374;2022-07-29T05:40:47;7.03;;;1.90;;
37001;SDS011;22913;51.910;8.374;2022-07-29T05:43:33;3.13;;;1.90;;
37001;SDS011;22913;51.910;8.374;2022-07-29T05:46:19;6.83;;;1.93;;
37001;SDS011;22913;51.910;8.374;2022-07-29T05:49:05;3.57;;;1.90;;
37001;SDS011;22913;51.910;8.374;2022-07-29T05:51:51;3.23;;;1.83;;
37001;SDS011;22913;51.910;8.374;2022-07-29T05:54:37;3.93;;;2.10;;
37001;SDS011;22913;51.910;8.374;2022-07-29T05:57:25;4.10;;;1.90;;
37001;SDS011;22913;51.910;8.374;2022-07-29T06:00:11;5.13;;;1.73;;
37001;SDS011;22913;51.910;8.374;2022-07-29T06:02:57;3.00;;;1.90;;
37001;SDS011;22913;51.910;8.374;2022-07-29T06:05:43;2.90;;;2.10;;
37001;SDS011;22913;51.910;8.374;2022-07-29T06:08:29;7.77;;;2.10;;
37001;SDS011;22913;51.910;8.374;2022-07-29T06:11:17;5.47;;;1.70;;
37001;SDS011;22913;51.910;8.374;2022-07-29T06:14:04;3.40;;;2.07;;
37001;SDS011;22913;51.910;8.374;2022-07-29T06:16:50;3.97;;;2.00;;
37001;SDS011;22913;51.910;8.374;2022-07-29T06:19:36;6.83;;;2.00;;
37001;SDS011;22913;51.910;8.374;2022-07-29T06:22:22;6.27;;;2.00;;
37001;SDS011;22913;51.910;8.374;2022-07-29T06:25:08;7.20;;;2.40;;
37001;SDS011;22913;51.910;8.374;2022-07-29T06:27:54;5.17;;;2.47;;
37001;SDS011;22913;51.910;8.374;2022-07-29T06:30:41;3.03;;;2.00;;
37001;SDS011;22913;51.910;8.374;2022-07-29T06:33:27;6.00;;;1.90;;
37001;SDS011;22913;51.910;8.374;2022-07-29T06:36:13;4.77;;;2.30;;
37001;SDS011;22913;51.910;8.374;2022-07-29T06:38:59;6.93;;;1.83;;
37001;SDS011;22913;51.910;8.374;2022-07-29T06:41:46;3.77;;;2.13;;
37001;SDS011;22913;51.910;8.374;2022-07-29T06:44:32;3.07;;;2.27;;
37001;SDS011;22913;51.910;8.374;2022-07-29T06:47:20;4.23;;;1.80;;
37001;SDS011;22913;51.910;8.374;2022-07-29T06:50:06;3.60;;;1.63;;
37001;SDS011;22913;51.910;8.374;2022-07-29T06:52:55;3.37;;;2.10;;
37001;SDS011;22913;51.910;8.374;2022-07-29T06:55:41;3.43;;;1.77;;
37001;SDS011;22913;51.910;8.374;2022-07-29T06:58:27;5.57;;;2.00;;
37001;SDS011;22913;51.910;8.374;2022-07-29T07:01:13;7.83;;;2.13;;
37001;SDS011;22913;51.910;8.374;2022-07-29T07:04:00;5.43;;;1.93;;
37001;SDS011;22913;51.910;8.374;2022-07-29T07:06:45;3.77;;;1.50;;
37001;SDS011;22913;51.910;8.374;2022-07-29T07:09:31;3.93;;;1.93;;
37001;SDS011;22913;51.910;8.374;2022-07-29T07:12:16;5.57;;;2.00;;
37001;SDS011;22913;51.910;8.374;2022-07-29T07:15:02;6.40;;;1.83;;
37001;SDS011;22913;51.910;8.374;2022-07-29T07:17:49;3.37;;;1.93;;
37001;SDS011;22913;51.910;8.374;2022-07-29T07:20:36;3.83;;;1.70;;
37001;SDS011;22913;51.910;8.374;2022-07-29T07:23:22;4.97;;;2.03;;
37001;SDS011;22913;51.910;8.374;2022-07-29T07:26:08;3.90;;;2.10;;
37001;SDS011;22913;51.910;8.374;2022-07-29T07:28:54;2.33;;;1.73;;
37001;SDS011;22913;51.910;8.374;2022-07-29T07:31:41;4.33;;;2.00;;
37001;SDS011;22913;51.910;8.374;2022-07-29T07:34:27;2.07;;;1.80;;
37001;SDS011;22913;51.910;8.374;2022-07-29T07:37:15;2.00;;;1.80;;
37001;SDS011;22913;51.910;8.374;2022-07-29T07:40:03;2.87;;;1.60;;
37001;SDS011;22913;51.910;8.374;2022-07-29T07:42:49;2.87;;;1.87;;
37001;SDS011;22913;51.910;8.374;2022-07-29T07:45:35;3.40;;;1.80;;
37001;SDS011;22913;51.910;8.374;2022-07-29T07:48:21;5.90;;;1.93;;
37001;SDS011;22913;51.910;8.374;2022-07-29T07:51:07;3.60;;;2.23;;
37001;SDS011;22913;51.910;8.374;2022-07-29T07:53:54;4.40;;;2.00;;
37001;SDS011;22913;51.910;8.374;2022-07-29T07:56:40;4.20;;;2.20;;
37001;SDS011;22913;51.910;8.374;2022-07-29T07:59:26;3.77;;;1.90;;
37001;SDS011;22913;51.910;8.374;2022-07-29T08:02:11;5.57;;;2.67;;
37001;SDS011;22913;51.910;8.374;2022-07-29T08:04:57;6.47;;;2.30;;
37001;SDS011;22913;51.910;8.374;2022-07-29T08:07:43;6.77;;;2.13;;
37001;SDS011;22913;51.910;8.374;2022-07-29T08:10:31;2.73;;;1.90;;
37001;SDS011;22913;51.910;8.374;2022-07-29T08:13:34;3.87;;;1.93;;
37001;SDS011;22913;51.910;8.374;2022-07-29T08:16:19;6.33;;;2.47;;
37001;SDS011;22913;51.910;8.374;2022-07-29T08:19:05;5.90;;;2.20;;
37001;SDS011;22913;51.910;8.374;2022-07-29T08:21:51;10.13;;;1.90;;
37001;SDS011;22913;51.910;8.374;2022-07-29T08:24:37;6.30;;;1.93;;
37001;SDS011;22913;51.910;8.374;2022-07-29T08:27:32;4.63;;;1.93;;
37001;SDS011;22913;51.910;8.374;2022-07-29T08:30:17;1.90;;;1.70;;
37001;SDS011;22913;51.910;8.374;2022-07-29T08:33:03;4.10;;;1.90;;
37001;SDS011;22913;51.910;8.374;2022-07-29T08:35:49;2.87;;;1.97;;
37001;SDS011;22913;51.910;8.374;2022-07-29T08:38:34;4.33;;;2.00;;
37001;SDS011;22913;51.910;8.374;2022-07-29T08:41:20;3.10;;;2.20;;
37001;SDS011;22913;51.910;8.374;2022-07-29T08:44:07;4.70;;;2.23;;
37001;SDS011;22913;51.910;8.374;2022-07-29T08:46:54;5.67;;;2.10;;
37001;SDS011;22913;51.910;8.374;2022-07-29T08:49:39;3.50;;;2.00;;
37001;SDS011;22913;51.910;8.374;2022-07-29T08:52:25;4.83;;;2.03;;
37001;SDS011;22913;51.910;8.374;2022-07-29T08:55:14;3.80;;;2.17;;
37001;SDS011;22913;51.910;8.374;2022-07-29T08:58:00;4.47;;;2.43;;
37001;SDS011;22913;51.910;8.374;2022-07-29T09:00:49;6.83;;;2.43;;
37001;SDS011;22913;51.910;8.374;2022-07-29T09:03:36;2.37;;;1.63;;
37001;SDS011;22913;51.910;8.374;2022-07-29T09:06:23;3.27;;;2.17;;
37001;SDS011;22913;51.910;8.374;2022-07-29T09:09:11;3.10;;;1.90;;
37001;SDS011;22913;51.910;8.374;2022-07-29T09:11:58;3.97;;;2.00;;
37001;SDS011;22913;51.910;8.374;2022-07-29T09:14:44;2.07;;;1.63;;
37001;SDS011;22913;51.910;8.374;2022-07-29T09:20:35;3.03;;;2.07;;
37001;SDS011;22913;51.910;8.374;2022-07-29T09:23:39;4.27;;;1.90;;
37001;SDS011;22913;51.910;8.374;2022-07-29T09:26:27;3.53;;;1.70;;
37001;SDS011;22913;51.910;8.374;2022-07-29T09:29:13;4.10;;;1.70;;
37001;SDS011;22913;51.910;8.374;2022-07-29T09:32:00;3.70;;;2.00;;
37001;SDS011;22913;51.910;8.374;2022-07-29T09:34:51;2.67;;;2.07;;
37001;SDS011;22913;51.910;8.374;2022-07-29T09:38:11;3.97;;;2.10;;
37001;SDS011;22913;51.910;8.374;2022-07-29T09:40:57;4.13;;;2.30;;
37001;SDS011;22913;51.910;8.374;2022-07-29T09:43:52;3.27;;;1.83;;
37001;SDS011;22913;51.910;8.374;2022-07-29T09:46:39;4.23;;;2.20;;
37001;SDS011;22913;51.910;8.374;2022-07-29T09:49:25;3.67;;;2.20;;
37001;SDS011;22913;51.910;8.374;2022-07-29T09:52:12;3.60;;;2.37;;
37001;SDS011;22913;51.910;8.374;2022-07-29T09:55:05;2.73;;;2.13;;
37001;SDS011;22913;51.910;8.374;2022-07-29T09:57:51;3.63;;;2.43;;
37001;SDS011;22913;51.910;8.374;2022-07-29T10:00:37;3.77;;;2.27;;
37001;SDS011;22913;51.910;8.374;2022-07-29T10:03:27;3.53;;;2.07;;
37001;SDS011;22913;51.910;8.374;2022-07-29T10:06:13;3.67;;;2.20;;
37001;SDS011;22913;51.910;8.374;2022-07-29T10:09:08;3.63;;;2.27;;
37001;SDS011;22913;51.910;8.374;2022-07-29T10:12:07;2.07;;;1.87;;
37001;SDS011;22913;51.910;8.374;2022-07-29T10:14:54;4.67;;;2.10;;
37001;SDS011;22913;51.910;8.374;2022-07-29T10:17:40;8.60;;;2.47;;
37001;SDS011;22913;51.910;8.374;2022-07-29T10:20:26;2.37;;;2.00;;
37001;SDS011;22913;51.910;8.374;2022-07-29T10:23:13;3.57;;;1.73;;
37001;SDS011;22913;51.910;8.374;2022-07-29T10:26:00;2.63;;;1.73;;
37001;SDS011;22913;51.910;8.374;2022-07-29T10:28:47;4.33;;;2.00;;
37001;SDS011;22913;51.910;8.374;2022-07-29T10:31:35;2.73;;;2.00;;
37001;SDS011;22913;51.910;8.374;2022-07-29T10:34:31;4.23;;;2.20;;
37001;SDS011;22913;51.910;8.374;2022-07-29T10:37:22;4.20;;;2.17;;
37001;SDS011;22913;51.910;8.374;2022-07-29T10:40:20;5.70;;;2.30;;
37001;SDS011;22913;51.910;8.374;2022-07-29T10:43:30;4.13;;;2.10;;
37001;SDS011;22913;51.910;8.374;2022-07-29T10:46:21;2.73;;;2.00;;
37001;SDS011;22913;51.910;8.374;2022-07-29T10:49:07;4.13;;;1.70;;
37001;SDS011;22913;51.910;8.374;2022-07-29T10:51:55;2.10;;;1.80;;
37001;SDS011;22913;51.910;8.374;2022-07-29T10:54:43;2.13;;;1.93;;
37001;SDS011;22913;51.910;8.374;2022-07-29T10:57:31;4.40;;;1.87;;
37001;SDS011;22913;51.910;8.374;2022-07-29T11:00:29;2.70;;;2.03;;
37001;SDS011;22913;51.910;8.374;2022-07-29T11:06:31;4.03;;;2.10;;
37001;SDS011;22913;51.910;8.374;2022-07-29T11:13:05;6.23;;;2.50;;
37001;SDS011;22913;51.910;8.374;2022-07-29T11:15:53;4.43;;;1.97;;
37001;SDS011;22913;51.910;8.374;2022-07-29T11:21:58;5.43;;;2.20;;
37001;SDS011;22913;51.910;8.374;2022-07-29T11:24:44;3.30;;;2.10;;
37001;SDS011;22913;51.910;8.374;2022-07-29T11:27:50;3.67;;;2.30;;
37001;SDS011;22913;51.910;8.374;2022-07-29T11:30:47;3.00;;;2.30;;
37001;SDS011;22913;51.910;8.374;2022-07-29T11:33:35;5.47;;;2.50;;
37001;SDS011;22913;51.910;8.374;2022-07-29T11:36:21;2.40;;;2.20;;
37001;SDS011;22913;51.910;8.374;2022-07-29T11:39:25;5.00;;;2.43;;
37001;SDS011;22913;51.910;8.374;2022-07-29T11:45:23;4.07;;;2.17;;
37001;SDS011;22913;51.910;8.374;2022-07-29T11:48:16;3.53;;;2.20;;
37001;SDS011;22913;51.910;8.374;2022-07-29T11:51:04;7.63;;;2.77;;
37001;SDS011;22913;51.910;8.374;2022-07-29T11:53:54;2.50;;;2.07;;
37001;SDS011;22913;51.910;8.374;2022-07-29T11:56:41;3.27;;;2.30;;
37001;SDS011;22913;51.910;8.374;2022-07-29T11:59:30;7.13;;;2.63;;
37001;SDS011;22913;51.910;8.374;2022-07-29T12:02:16;2.17;;;1.93;;
37001;SDS011;22913;51.910;8.374;2022-07-29T12:05:02;2.97;;;1.93;;
37001;SDS011;22913;51.910;8.374;2022-07-29T12:07:49;8.40;;;2.07;;
37001;SDS011;22913;51.910;8.374;2022-07-29T12:10:35;3.30;;;2.27;;
37001;SDS011;22913;51.910;8.374;2022-07-29T12:13:21;5.80;;;2.17;;
37001;SDS011;22913;51.910;8.374;2022-07-29T12:16:08;5.20;;;2.40;;
37001;SDS011;22913;51.910;8.374;2022-07-29T12:18:54;3.30;;;2.23;;
37001;SDS011;22913;51.910;8.374;2022-07-29T12:21:44;5.03;;;2.03;;
37001;SDS011;22913;51.910;8.374;2022-07-29T12:24:43;3.17;;;2.47;;
37001;SDS011;22913;51.910;8.374;2022-07-29T12:27:29;3.87;;;2.13;;
37001;SDS011;22913;51.910;8.374;2022-07-29T12:30:16;3.83;;;1.90;;
37001;SDS011;22913;51.910;8.374;2022-07-29T12:33:02;4.53;;;2.20;;
37001;SDS011;22913;51.910;8.374;2022-07-29T12:35:57;3.17;;;1.93;;
37001;SDS011;22913;51.910;8.374;2022-07-29T12:38:43;4.40;;;2.27;;
37001;SDS011;22913;51.910;8.374;2022-07-29T12:41:31;5.30;;;2.17;;
37001;SDS011;22913;51.910;8.374;2022-07-29T12:44:18;3.77;;;2.67;;
37001;SDS011;22913;51.910;8.374;2022-07-29T12:47:03;2.53;;;2.30;;
37001;SDS011;22913;51.910;8.374;2022-07-29T12:49:49;4.00;;;2.00;;
37001;SDS011;22913;51.910;8.374;2022-07-29T12:52:36;3.77;;;2.43;;
37001;SDS011;22913;51.910;8.374;2022-07-29T12:58:34;6.80;;;2.23;;
37001;SDS011;22913;51.910;8.374;2022-07-29T13:01:21;3.73;;;2.13;;
37001;SDS011;22913;51.910;8.374;2022-07-29T13:04:07;3.57;;;2.07;;
37001;SDS011;22913;51.910;8.374;2022-07-29T13:06:58;5.77;;;2.27;;
37001;SDS011;22913;51.910;8.374;2022-07-29T13:09:44;2.30;;;2.10;;
37001;SDS011;22913;51.910;8.374;2022-07-29T13:12:30;2.30;;;2.10;;
37001;SDS011;22913;51.910;8.374;2022-07-29T13:15:17;5.17;;;2.77;;
37001;SDS011;22913;51.910;8.374;2022-07-29T13:18:03;4.27;;;2.50;;
37001;SDS011;22913;51.910;8.374;2022-07-29T13:20:49;3.27;;;2.47;;
37001;SDS011;22913;51.910;8.374;2022-07-29T13:23:35;8.50;;;2.97;;
37001;SDS011;22913;51.910;8.374;2022-07-29T13:26:21;6.20;;;2.57;;
37001;SDS011;22913;51.910;8.374;2022-07-29T13:29:06;5.53;;;2.23;;
37001;SDS011;22913;51.910;8.374;2022-07-29T13:31:54;7.33;;;2.60;;
37001;SDS011;22913;51.910;8.374;2022-07-29T13:34:39;5.03;;;2.50;;
37001;SDS011;22913;51.910;8.374;2022-07-29T13:37:25;4.67;;;3.00;;
37001;SDS011;22913;51.910;8.374;2022-07-29T13:40:13;6.50;;;2.43;;
37001;SDS011;22913;51.910;8.374;2022-07-29T13:42:59;5.10;;;2.33;;
37001;SDS011;22913;51.910;8.374;2022-07-29T13:45:45;7.07;;;2.50;;
37001;SDS011;22913;51.910;8.374;2022-07-29T13:48:32;6.10;;;2.47;;
37001;SDS011;22913;51.910;8.374;2022-07-29T13:51:18;3.63;;;2.33;;
37001;SDS011;22913;51.910;8.374;2022-07-29T13:54:03;3.60;;;2.50;;
37001;SDS011;22913;51.910;8.374;2022-07-29T13:56:49;6.10;;;2.70;;
37001;SDS011;22913;51.910;8.374;2022-07-29T13:59:35;2.47;;;2.20;;
37001;SDS011;22913;51.910;8.374;2022-07-29T14:02:21;3.83;;;2.53;;
37001;SDS011;22913;51.910;8.374;2022-07-29T14:05:08;5.03;;;2.40;;
37001;SDS011;22913;51.910;8.374;2022-07-29T14:07:54;5.87;;;2.23;;
37001;SDS011;22913;51.910;8.374;2022-07-29T14:10:39;5.97;;;2.73;;
37001;SDS011;22913;51.910;8.374;2022-07-29T14:13:25;3.40;;;2.63;;
37001;SDS011;22913;51.910;8.374;2022-07-29T14:16:11;5.03;;;2.37;;
37001;SDS011;22913;51.910;8.374;2022-07-29T14:18:57;4.97;;;2.63;;
37001;SDS011;22913;51.910;8.374;2022-07-29T14:21:44;4.57;;;2.77;;
37001;SDS011;22913;51.910;8.374;2022-07-29T14:24:29;3.90;;;2.43;;
37001;SDS011;22913;51.910;8.374;2022-07-29T14:27:15;3.73;;;2.83;;
37001;SDS011;22913;51.910;8.374;2022-07-29T14:30:01;3.10;;;2.47;;
37001;SDS011;22913;51.910;8.374;2022-07-29T14:32:47;4.17;;;2.60;;
37001;SDS011;22913;51.910;8.374;2022-07-29T14:35:32;4.77;;;3.00;;
37001;SDS011;22913;51.910;8.374;2022-07-29T14:38:19;5.23;;;2.80;;
37001;SDS011;22913;51.910;8.374;2022-07-29T14:41:05;5.40;;;2.97;;
37001;SDS011;22913;51.910;8.374;2022-07-29T14:43:51;5.13;;;2.50;;
37001;SDS011;22913;51.910;8.374;2022-07-29T14:46:37;5.17;;;2.77;;
37001;SDS011;22913;51.910;8.374;2022-07-29T14:49:23;3.83;;;2.40;;
37001;SDS011;22913;51.910;8.374;2022-07-29T14:52:08;7.40;;;2.77;;
37001;SDS011;22913;51.910;8.374;2022-07-29T14:54:55;4.10;;;2.47;;
37001;SDS011;22913;51.910;8.374;2022-07-29T14:57:41;5.97;;;2.90;;
37001;SDS011;22913;51.910;8.374;2022-07-29T15:00:26;4.70;;;2.70;;
37001;SDS011;22913;51.910;8.374;2022-07-29T15:03:15;3.90;;;2.63;;
37001;SDS011;22913;51.910;8.374;2022-07-29T15:06:07;5.43;;;2.80;;
37001;SDS011;22913;51.910;8.374;2022-07-29T15:08:53;4.53;;;3.00;;
37001;SDS011;22913;51.910;8.374;2022-07-29T15:11:39;4.03;;;2.80;;
37001;SDS011;22913;51.910;8.374;2022-07-29T15:14:25;6.87;;;2.60;;
37001;SDS011;22913;51.910;8.374;2022-07-29T15:17:10;5.83;;;3.10;;
37001;SDS011;22913;51.910;8.374;2022-07-29T15:19:57;3.80;;;2.80;;
37001;SDS011;22913;51.910;8.374;2022-07-29T15:22:42;8.50;;;2.77;;
37001;SDS011;22913;51.910;8.374;2022-07-29T15:25:28;4.00;;;2.77;;
37001;SDS011;22913;51.910;8.374;2022-07-29T15:28:15;5.03;;;2.80;;
37001;SDS011;22913;51.910;8.374;2022-07-29T15:31:01;6.63;;;2.70;;
37001;SDS011;22913;51.910;8.374;2022-07-29T15:33:46;4.13;;;2.47;;
37001;SDS011;22913;51.910;8.374;2022-07-29T15:36:32;5.93;;;3.17;;
37001;SDS011;22913;51.910;8.374;2022-07-29T15:39:18;3.63;;;2.80;;
37001;SDS011;22913;51.910;8.374;2022-07-29T15:42:04;3.40;;;3.00;;
37001;SDS011;22913;51.910;8.374;2022-07-29T15:44:51;5.40;;;2.80;;
37001;SDS011;22913;51.910;8.374;2022-07-29T15:47:37;5.17;;;3.00;;
37001;SDS011;22913;51.910;8.374;2022-07-29T15:50:22;6.97;;;2.83;;
37001;SDS011;22913;51.910;8.374;2022-07-29T15:53:08;6.53;;;2.77;;
37001;SDS011;22913;51.910;8.374;2022-07-29T15:55:54;4.83;;;3.20;;
37001;SDS011;22913;51.910;8.374;2022-07-29T15:58:39;6.80;;;3.17;;
37001;SDS011;22913;51.910;8.374;2022-07-29T16:01:26;5.67;;;2.73;;
37001;SDS011;22913;51.910;8.374;2022-07-29T16:04:12;5.50;;;2.93;;
37001;SDS011;22913;51.910;8.374;2022-07-29T16:06:58;6.30;;;2.60;;
37001;SDS011;22913;51.910;8.374;2022-07-29T16:09:43;5.40;;;2.60;;
37001;SDS011;22913;51.910;8.374;2022-07-29T16:12:29;9.37;;;2.60;;
37001;SDS011;22913;51.910;8.374;2022-07-29T16:15:15;7.23;;;2.70;;
37001;SDS011;22913;51.910;8.374;2022-07-29T16:18:03;3.70;;;2.43;;
37001;SDS011;22913;51.910;8.374;2022-07-29T16:20:49;7.30;;;2.57;;
37001;SDS011;22913;51.910;8.374;2022-07-29T16:23:35;4.90;;;2.40;;
37001;SDS011;22913;51.910;8.374;2022-07-29T16:26:21;8.10;;;2.67;;
37001;SDS011;22913;51.910;8.374;2022-07-29T16:29:06;9.23;;;2.63;;
37001;SDS011;22913;51.910;8.374;2022-07-29T16:31:52;4.13;;;2.50;;
37001;SDS011;22913;51.910;8.374;2022-07-29T16:34:39;5.97;;;2.80;;
37001;SDS011;22913;51.910;8.374;2022-07-29T16:37:25;7.13;;;2.40;;
37001;SDS011;22913;51.910;8.374;2022-07-29T16:40:16;6.03;;;2.70;;
37001;SDS011;22913;51.910;8.374;2022-07-29T16:43:05;4.60;;;2.63;;
37001;SDS011;22913;51.910;8.374;2022-07-29T16:45:50;4.13;;;2.63;;
37001;SDS011;22913;51.910;8.374;2022-07-29T16:48:36;4.97;;;2.40;;
37001;SDS011;22913;51.910;8.374;2022-07-29T16:51:23;5.03;;;2.60;;
37001;SDS011;22913;51.910;8.374;2022-07-29T16:54:09;8.20;;;3.00;;
37001;SDS011;22913;51.910;8.374;2022-07-29T16:56:55;4.43;;;2.50;;
37001;SDS011;22913;51.910;8.374;2022-07-29T16:59:42;4.90;;;2.77;;
37001;SDS011;22913;51.910;8.374;2022-07-29T17:02:28;3.97;;;2.50;;
37001;SDS011;22913;51.910;8.374;2022-07-29T17:05:15;5.93;;;2.70;;
37001;SDS011;22913;51.910;8.374;2022-07-29T17:08:02;5.50;;;2.77;;
37001;SDS011;22913;51.910;8.374;2022-07-29T17:10:48;6.17;;;3.00;;
37001;SDS011;22913;51.910;8.374;2022-07-29T17:13:34;7.77;;;3.00;;